Time;durP1;ratioP1;P1;durP2;ratioP2;P2;SDS_P1;SDS_P2;PMS_P1;PMS_P2;Temp;Humidity;BMP_temperature;BMP_pressure;BME280_temperature;BME280_humidity;BME280_pressure;Samples;Min_cycle;Max_cycle;Signal;HPM_P1;HPM_P2
2023/07/26 00:00:55;;;;;;;10.32;2.38;;;;;;;11.50;100.00;100909.66;10395837;28;20045;-67
2023/07/26 00:05:55;;;;;;;10.80;3.22;;;;;;;11.42;100.00;100902.69;10432396;28;20124;-67
2023/07/26 00:10:56;;;;;;;16.00;2.80;;;;;;;11.31;100.00;100911.94;10385291;28;20083;-67
2023/07/26 00:15:56;;;;;;;10.77;3.55;;;;;;;11.34;100.00;100916.91;10382650;28;20052;-67
2023/07/26 00:20:57;;;;;;;8.70;2.65;;;;;;;11.29;100.00;100916.88;10423603;28;20072;-67
2023/07/26 00:25:57;;;;;;;4.07;2.08;;;;;;;11.26;100.00;100922.88;10454035;28;20048;-68
2023/07/26 00:30:58;;;;;;;3.78;1.83;;;;;;;11.28;100.00;100929.81;10403755;28;20040;-67
2023/07/26 00:35:58;;;;;;;8.93;1.95;;;;;;;11.34;100.00;100938.16;10421510;28;20057;-67
2023/07/26 00:40:59;;;;;;;4.40;2.17;;;;;;;11.29;100.00;100914.13;10386670;28;20049;-67
2023/07/26 00:46:00;;;;;;;6.35;2.30;;;;;;;11.18;100.00;100912.31;10438852;28;20060;-67
2023/07/26 00:51:00;;;;;;;4.60;1.83;;;;;;;11.29;100.00;100923.22;10418170;28;20066;-68
2023/07/26 00:56:02;;;;;;;4.93;2.00;;;;;;;11.38;100.00;100942.88;10431801;28;20473;-67
2023/07/26 01:01:03;;;;;;;5.03;2.55;;;;;;;11.44;100.00;100939.09;10409723;28;20045;-67
2023/07/26 01:06:22;;;;;;;7.28;2.50;;;;;;;11.45;100.00;100920.63;10436061;28;20132;-67
2023/07/26 01:11:59;;;;;;;5.13;2.75;;;;;;;11.55;100.00;100933.69;10401686;28;20082;-67
2023/07/26 01:17:00;;;;;;;6.28;2.92;;;;;;;11.58;100.00;100938.69;10422163;28;20037;-67
2023/07/26 01:22:01;;;;;;;5.05;2.67;;;;;;;11.48;100.00;100918.19;10420854;28;20037;-67
2023/07/26 01:27:01;;;;;;;5.50;3.03;;;;;;;11.57;100.00;100934.25;10429494;28;20045;-67
2023/07/26 01:32:02;;;;;;;5.93;2.63;;;;;;;11.58;100.00;100938.69;10420939;28;20033;-67
2023/07/26 01:37:03;;;;;;;4.80;2.63;;;;;;;11.50;100.00;100921.50;10399578;28;20052;-67
2023/07/26 01:42:03;;;;;;;5.40;3.20;;;;;;;11.57;100.00;100937.84;10415336;28;20033;-67
2023/07/26 01:47:05;;;;;;;4.63;2.80;;;;;;;11.47;100.00;100921.19;10416316;28;20109;-66
2023/07/26 01:52:06;;;;;;;6.43;3.55;;;;;;;11.54;100.00;100921.00;10423607;28;21688;-67
2023/07/26 01:57:07;;;;;;;5.82;3.55;;;;;;;11.44;100.00;100922.53;10433464;28;20064;-67
2023/07/26 02:02:07;;;;;;;7.32;3.28;;;;;;;11.38;100.00;100911.72;10413145;28;20030;-66
2023/07/26 02:07:08;;;;;;;6.45;3.67;;;;;;;11.36;100.00;100923.00;10407749;28;20052;-67
2023/07/26 02:12:08;;;;;;;5.55;2.67;;;;;;;11.30;100.00;100921.28;10437271;28;20045;-67
2023/07/26 02:17:09;;;;;;;7.88;3.97;;;;;;;11.23;100.00;100931.69;10429490;28;20116;-67
2023/07/26 02:22:09;;;;;;;7.53;3.90;;;;;;;11.15;100.00;100921.13;10412085;28;20179;-66
2023/07/26 02:27:10;;;;;;;5.80;3.70;;;;;;;11.08;100.00;100913.06;10434618;28;20033;-67
2023/07/26 02:32:10;;;;;;;11.27;4.57;;;;;;;10.98;100.00;100908.25;10428589;28;20034;-67
2023/07/26 02:37:11;;;;;;;8.27;4.18;;;;;;;10.92;100.00;100908.44;10430280;28;20041;-67
2023/07/26 02:42:11;;;;;;;7.03;4.47;;;;;;;10.83;100.00;100905.28;10416782;28;20055;-67
2023/07/26 02:47:12;;;;;;;6.82;3.95;;;;;;;10.71;100.00;100908.16;10412366;28;20091;-67
2023/07/26 02:52:12;;;;;;;6.68;4.25;;;;;;;10.70;100.00;100923.00;10418486;28;20037;-67
2023/07/26 02:57:13;;;;;;;7.80;3.92;;;;;;;10.64;100.00;100918.50;10438682;28;20062;-67
2023/07/26 03:02:14;;;;;;;8.10;5.68;;;;;;;10.58;100.00;100923.09;10438959;28;20049;-67
2023/07/26 03:07:14;;;;;;;8.95;4.35;;;;;;;10.55;100.00;100920.03;10471132;28;20032;-67
2023/07/26 03:12:15;;;;;;;8.25;4.55;;;;;;;10.54;100.00;100930.19;10454650;28;20048;-67
2023/07/26 03:17:16;;;;;;;9.10;4.68;;;;;;;10.54;100.00;100930.19;10452086;28;20485;-67
2023/07/26 03:22:16;;;;;;;8.57;5.13;;;;;;;10.48;100.00;100934.00;10454902;28;20044;-67
2023/07/26 03:27:17;;;;;;;6.90;4.32;;;;;;;10.47;100.00;100940.56;10422505;28;20052;-67
2023/07/26 03:32:17;;;;;;;12.43;5.15;;;;;;;10.55;100.00;100950.31;10450233;28;20053;-67
2023/07/26 03:37:18;;;;;;;8.63;5.25;;;;;;;10.67;100.00;100940.88;10454082;28;20047;-67
2023/07/26 03:42:18;;;;;;;7.90;4.63;;;;;;;10.79;100.00;100942.66;10455225;28;20033;-66
2023/07/26 03:47:19;;;;;;;9.75;4.78;;;;;;;10.84;100.00;100937.25;10450497;28;20036;-67
2023/07/26 03:52:19;;;;;;;6.90;4.70;;;;;;;10.92;100.00;100950.56;10423723;28;20477;-66
2023/07/26 03:57:20;;;;;;;5.90;4.07;;;;;;;10.95;100.00;100940.97;10469048;28;20116;-66
2023/07/26 04:02:20;;;;;;;9.18;4.70;;;;;;;10.90;100.00;100939.81;10457588;28;20056;-67
2023/07/26 04:07:21;;;;;;;8.35;5.18;;;;;;;10.93;100.00;100943.97;10447503;28;20060;-65
2023/07/26 04:12:21;;;;;;;7.75;4.95;;;;;;;10.63;100.00;100889.31;10460565;28;20041;-67
2023/07/26 04:17:22;;;;;;;6.57;4.50;;;;;;;10.98;100.00;100938.53;10463230;28;20131;-67
2023/07/26 04:22:22;;;;;;;12.52;5.50;;;;;;;11.19;100.00;100971.88;10440950;28;20037;-67
2023/07/26 04:27:23;;;;;;;12.90;6.68;;;;;;;11.32;100.00;100974.22;10463781;28;20032;-67
2023/07/26 04:32:23;;;;;;;7.45;4.80;;;;;;;11.41;100.00;100978.22;10460158;28;20475;-67
2023/07/26 04:37:24;;;;;;;6.53;4.38;;;;;;;11.50;100.00;100973.91;10426972;28;20042;-67
2023/07/26 04:42:24;;;;;;;5.82;4.35;;;;;;;11.56;100.00;100972.03;10447557;28;20075;-66
2023/07/26 04:47:25;;;;;;;6.65;4.38;;;;;;;11.60;100.00;100964.09;10453329;28;20056;-66
2023/07/26 04:52:25;;;;;;;8.52;4.57;;;;;;;11.60;100.00;100961.34;10440765;28;20428;-67
2023/07/26 04:57:26;;;;;;;9.13;4.65;;;;;;;11.74;100.00;100973.63;10479523;28;20049;-67
2023/07/26 05:02:26;;;;;;;7.28;4.60;;;;;;;11.82;100.00;100972.28;10440554;28;20108;-67
2023/07/26 05:07:27;;;;;;;10.68;5.15;;;;;;;11.93;100.00;100984.28;10424117;28;20400;-67
2023/07/26 05:12:27;;;;;;;7.03;4.63;;;;;;;11.94;100.00;100985.97;10475101;28;20045;-67
2023/07/26 05:17:28;;;;;;;6.47;4.30;;;;;;;11.94;100.00;100980.47;10444325;28;20071;-66
2023/07/26 05:22:28;;;;;;;7.38;4.32;;;;;;;11.94;100.00;100978.53;10457389;28;20079;-67
2023/07/26 05:27:29;;;;;;;7.32;4.35;;;;;;;12.02;100.00;100979.97;10443181;28;20557;-66
2023/07/26 05:32:29;;;;;;;8.45;4.28;;;;;;;12.07;100.00;100986.41;10440966;28;20040;-67
2023/07/26 05:37:34;;;;;;;6.13;4.10;;;;;;;12.15;100.00;100993.34;10455052;28;20045;-67
2023/07/26 05:42:35;;;;;;;6.57;4.25;;;;;;;12.34;100.00;100990.19;10444471;28;20041;-66
2023/07/26 05:47:38;;;;;;;8.98;3.28;;;;;;;12.56;100.00;100998.38;10453649;28;20037;-66
2023/07/26 05:52:38;;;;;;;5.03;3.22;;;;;;;12.67;100.00;100998.19;10446250;28;20505;-67
2023/07/26 05:57:39;;;;;;;6.20;3.63;;;;;;;12.99;100.00;100988.19;10437744;28;20108;-67
2023/07/26 06:02:40;;;;;;;4.63;3.22;;;;;;;13.26;100.00;100990.78;10478436;28;20079;-66
2023/07/26 06:07:40;;;;;;;6.55;3.00;;;;;;;13.50;100.00;100991.22;10477570;28;20044;-67
2023/07/26 06:12:41;;;;;;;3.75;2.70;;;;;;;13.63;100.00;100989.88;10434435;28;20079;-66
2023/07/26 06:17:41;;;;;;;3.25;2.08;;;;;;;13.66;100.00;101000.38;10455626;28;20448;-67
2023/07/26 06:22:42;;;;;;;5.75;3.33;;;;;;;13.53;100.00;101010.84;10455152;28;20040;-66
2023/07/26 06:27:42;;;;;;;4.03;2.13;;;;;;;13.36;100.00;101018.53;10455375;28;20061;-66
2023/07/26 06:32:43;;;;;;;3.40;2.25;;;;;;;13.21;100.00;101021.16;10474664;28;20102;-66
2023/07/26 06:37:43;;;;;;;3.60;2.03;;;;;;;13.29;100.00;101017.94;10449733;28;20049;-66
2023/07/26 06:42:44;;;;;;;5.88;2.10;;;;;;;13.44;100.00;101026.31;10463830;28;20029;-65
2023/07/26 06:47:44;;;;;;;5.88;2.67;;;;;;;13.41;100.00;101020.47;10457319;28;20032;-66
2023/07/26 06:52:45;;;;;;;2.47;1.30;;;;;;;13.24;100.00;101004.88;10444660;28;20049;-66
2023/07/26 06:57:45;;;;;;;2.72;1.52;;;;;;;13.09;100.00;101025.00;10429119;28;20051;-66
2023/07/26 07:02:46;;;;;;;2.83;1.63;;;;;;;13.21;100.00;101016.50;10426242;28;20036;-66
2023/07/26 07:07:47;;;;;;;3.47;1.90;;;;;;;13.61;100.00;101011.44;10427555;28;20053;-65
2023/07/26 07:12:47;;;;;;;4.22;1.38;;;;;;;13.98;100.00;101015.97;10441042;28;20483;-66
2023/07/26 07:17:47;;;;;;;7.53;1.58;;;;;;;14.30;100.00;101021.25;10450127;28;20056;-66
2023/07/26 07:22:51;;;;;;;6.63;1.60;;;;;;;14.52;100.00;101018.22;10447182;28;20038;-66
2023/07/26 07:27:52;;;;;;;3.65;1.50;;;;;;;14.60;100.00;101025.19;10456084;28;20040;-66
2023/07/26 07:32:52;;;;;;;2.45;1.35;;;;;;;14.80;100.00;101018.78;10472861;28;20060;-66
2023/07/26 07:37:53;;;;;;;3.85;1.13;;;;;;;15.28;100.00;101024.78;10459895;28;20048;-66
2023/07/26 07:42:53;;;;;;;2.92;1.50;;;;;;;15.78;100.00;101011.84;10446232;28;20041;-67
2023/07/26 07:47:54;;;;;;;1.95;1.30;;;;;;;16.16;100.00;101017.69;10420855;28;20037;-66
2023/07/26 07:52:54;;;;;;;2.90;1.00;;;;;;;16.18;100.00;101018.25;10450307;28;20029;-66
2023/07/26 07:57:55;;;;;;;3.22;1.00;;;;;;;16.08;100.00;101015.53;10434669;28;20132;-66
2023/07/26 08:02:55;;;;;;;4.20;1.42;;;;;;;16.14;100.00;101037.44;10447244;28;20040;-67
2023/07/26 08:07:56;;;;;;;2.08;1.25;;;;;;;16.46;100.00;101038.88;10448110;28;20065;-67
2023/07/26 08:12:56;;;;;;;2.90;1.10;;;;;;;16.53;100.00;101038.53;10467812;28;20049;-68
2023/07/26 08:17:57;;;;;;;3.00;1.20;;;;;;;16.93;100.00;101042.13;10445108;28;20045;-68
2023/07/26 08:22:57;;;;;;;1.60;0.73;;;;;;;16.69;100.00;101040.06;10457384;28;20132;-68
2023/07/26 08:27:58;;;;;;;2.13;1.05;;;;;;;16.36;100.00;101049.25;10464529;28;20029;-68
2023/07/26 08:32:58;;;;;;;1.70;1.40;;;;;;;16.47;100.00;101034.16;10421431;28;20074;-68
2023/07/26 08:37:59;;;;;;;2.58;1.25;;;;;;;16.67;100.00;101050.66;10475993;28;20037;-67
2023/07/26 08:43:03;;;;;;;3.17;1.60;;;;;;;16.59;100.00;101042.13;10479051;28;20032;-68
2023/07/26 08:48:04;;;;;;;2.63;1.25;;;;;;;16.12;100.00;101044.38;10442194;28;20047;-68
2023/07/26 08:53:05;;;;;;;3.08;1.25;;;;;;;16.16;100.00;101028.81;10429840;28;20054;-67
2023/07/26 08:58:06;;;;;;;3.67;1.20;;;;;;;16.51;100.00;101040.78;10429749;28;20048;-68
2023/07/26 09:03:07;;;;;;;1.73;0.80;;;;;;;16.80;100.00;101031.63;10442586;28;20041;-68
2023/07/26 09:08:07;;;;;;;2.25;0.80;;;;;;;16.55;100.00;101030.75;10444963;28;20084;-69
2023/07/26 09:13:12;;;;;;;1.52;0.60;;;;;;;17.14;100.00;100999.06;10419501;28;20033;-68
2023/07/26 09:18:14;;;;;;;1.05;0.50;;;;;;;17.44;100.00;100991.47;10399532;28;20065;-69
2023/07/26 09:23:16;;;;;;;1.40;0.70;;;;;;;17.33;100.00;100995.50;10442568;28;20320;-69
2023/07/26 09:28:16;;;;;;;0.73;0.40;;;;;;;17.27;100.00;101005.03;10444673;28;20060;-68
2023/07/26 09:33:17;;;;;;;1.35;0.70;;;;;;;17.03;100.00;101005.00;10429794;28;20033;-68
2023/07/26 09:38:24;;;;;;;1.85;1.02;;;;;;;17.51;100.00;101000.28;10428623;28;20052;-69
2023/07/26 09:43:32;;;;;;;1.30;1.00;;;;;;;17.67;100.00;100992.56;10411600;28;20503;-68
2023/07/26 09:48:32;;;;;;;2.80;1.30;;;;;;;17.65;100.00;100992.03;10410696;28;20043;-68
2023/07/26 09:53:33;;;;;;;1.38;1.08;;;;;;;17.79;100.00;101008.81;10415627;28;20033;-68
2023/07/26 09:58:34;;;;;;;4.68;1.45;;;;;;;17.89;100.00;100994.78;10429623;28;20041;-67
2023/07/26 10:03:35;;;;;;;2.85;1.45;;;;;;;18.17;100.00;101002.44;10421207;28;20124;-68
2023/07/26 10:08:35;;;;;;;5.07;1.52;;;;;;;18.78;100.00;100981.06;10424583;28;20493;-68
2023/07/26 10:13:36;;;;;;;1.95;0.98;;;;;;;18.64;100.00;100979.06;10421556;28;20045;-68
2023/07/26 10:18:36;;;;;;;2.90;1.48;;;;;;;18.97;100.00;100970.69;10418816;28;20041;-68
2023/07/26 10:23:37;;;;;;;2.58;0.90;;;;;;;18.60;100.00;100983.59;10458611;28;20052;-69
2023/07/26 10:28:38;;;;;;;1.60;1.02;;;;;;;19.25;100.00;100959.56;10431687;28;22558;-68
2023/07/26 10:33:45;;;;;;;2.78;1.38;;;;;;;19.05;100.00;100944.03;10422086;28;20044;-68
2023/07/26 10:38:49;;;;;;;8.75;2.10;;;;;;;18.93;100.00;100966.88;10411130;28;20509;-68
2023/07/26 10:43:50;;;;;;;2.85;1.00;;;;;;;19.07;100.00;100956.53;10415563;28;20041;-68
2023/07/26 10:48:51;;;;;;;1.65;0.57;;;;;;;18.14;100.00;101003.88;10424496;28;20056;-69
2023/07/26 10:53:55;;;;;;;1.30;0.85;;;;;;;16.75;100.00;100991.66;10419006;28;20056;-68
2023/07/26 10:58:58;;;;;;;2.53;1.08;;;;;;;17.00;100.00;101003.66;10419617;28;20045;-68
2023/07/26 11:03:58;;;;;;;1.90;1.20;;;;;;;17.69;100.00;100995.88;10403610;28;20037;-68
2023/07/26 11:08:59;;;;;;;2.10;1.00;;;;;;;18.17;100.00;100986.56;10425725;28;20172;-68
2023/07/26 11:13:59;;;;;;;1.95;1.10;;;;;;;18.88;100.00;100966.97;10405368;28;20047;-68
2023/07/26 11:19:00;;;;;;;1.88;0.65;;;;;;;19.35;100.00;100964.91;10430994;28;20052;-69
2023/07/26 11:24:01;;;;;;;1.50;1.00;;;;;;;20.03;100.00;100957.56;10424032;28;20056;-68
2023/07/26 11:29:01;;;;;;;1.45;0.80;;;;;;;20.63;100.00;100945.16;10425018;28;20041;-69
2023/07/26 11:34:18;;;;;;;1.45;0.88;;;;;;;20.71;100.00;100952.78;10422068;28;20123;-68
2023/07/26 11:39:23;;;;;;;6.43;1.00;;;;;;;21.42;100.00;100943.50;10395186;28;20041;-68
2023/07/26 11:44:24;;;;;;;2.05;1.08;;;;;;;21.16;100.00;100927.41;10413382;28;20033;-68
2023/07/26 11:49:25;;;;;;;1.70;0.93;;;;;;;20.05;100.00;100971.19;10426750;28;20040;-68
2023/07/26 11:54:25;;;;;;;1.88;0.73;;;;;;;18.48;100.00;101002.78;10408216;28;20041;-68
2023/07/26 11:59:26;;;;;;;4.38;0.70;;;;;;;15.94;100.00;101043.94;10424316;28;20052;-67
2023/07/26 12:04:26;;;;;;;1.10;0.60;;;;;;;14.87;100.00;101047.06;10400456;28;20037;-67
2023/07/26 12:09:27;;;;;;;4.07;0.65;;;;;;;14.51;100.00;101019.31;10400642;28;20042;-69
2023/07/26 12:14:31;;;;;;;1.77;0.90;;;;;;;14.81;100.00;101065.63;10415785;28;20037;-67
2023/07/26 12:19:31;;;;;;;4.32;0.93;;;;;;;14.87;100.00;101063.69;10416924;28;20500;-66
2023/07/26 12:24:32;;;;;;;2.13;1.05;;;;;;;14.95;100.00;101065.09;10423834;28;20036;-67
2023/07/26 12:29:33;;;;;;;1.30;0.70;;;;;;;15.37;100.00;101067.47;10429174;28;20063;-67
2023/07/26 12:34:35;;;;;;;1.58;0.95;;;;;;;15.59;100.00;101074.63;10441495;28;20044;-67
2023/07/26 12:39:38;;;;;;;0.80;0.50;;;;;;;15.52;100.00;101072.13;10444301;28;20052;-66
2023/07/26 12:44:39;;;;;;;2.47;0.70;;;;;;;15.57;100.00;101076.88;10458147;28;20033;-67
2023/07/26 12:49:40;;;;;;;2.40;0.50;;;;;;;15.71;100.00;101072.38;10468626;28;20092;-68
2023/07/26 12:54:41;;;;;;;3.55;1.05;;;;;;;16.31;100.00;101070.38;10447228;28;20097;-67
2023/07/26 12:59:42;;;;;;;3.90;0.98;;;;;;;17.58;100.00;101068.69;10456142;28;20053;-67
2023/07/26 13:04:42;;;;;;;3.92;1.73;;;;;;;18.55;100.00;101047.84;10463269;28;20036;-68
2023/07/26 13:09:43;;;;;;;3.05;0.70;;;;;;;20.39;100.00;101031.34;10454840;28;20037;-68
2023/07/26 13:14:43;;;;;;;3.53;0.80;;;;;;;21.19;100.00;101009.13;10444241;28;20071;-68
2023/07/26 13:19:43;;;;;;;1.77;0.80;;;;;;;22.63;100.00;101002.75;10427883;28;20340;-68
2023/07/26 13:24:44;;;;;;;1.40;0.80;;;;;;;23.48;100.00;100997.19;10425015;28;20044;-68
2023/07/26 13:29:44;;;;;;;2.70;0.80;;;;;;;23.60;100.00;100998.44;10442117;28;20056;-68
2023/07/26 13:34:45;;;;;;;1.58;0.90;;;;;;;23.49;100.00;100998.00;10457184;28;20148;-68
2023/07/26 13:39:45;;;;;;;1.27;0.63;;;;;;;22.98;100.00;100979.03;10475376;28;20044;-68
2023/07/26 13:44:46;;;;;;;3.88;0.80;;;;;;;21.77;100.00;101008.03;10403365;28;20083;-68
2023/07/26 13:49:47;;;;;;;1.65;0.70;;;;;;;20.52;100.00;101006.09;10443292;28;20056;-68
2023/07/26 13:54:47;;;;;;;2.38;0.60;;;;;;;19.61;100.00;101023.81;10473810;28;20055;-67
2023/07/26 13:59:48;;;;;;;1.30;0.90;;;;;;;19.36;100.00;101030.75;10420480;28;20045;-68
2023/07/26 14:04:49;;;;;;;2.55;0.55;;;;;;;19.70;100.00;101012.75;10460314;28;20054;-69
2023/07/26 14:09:50;;;;;;;2.30;0.80;;;;;;;19.79;100.00;101035.22;10426015;28;20043;-68
2023/07/26 14:14:51;;;;;;;2.15;1.05;;;;;;;21.48;100.00;101017.84;10437423;28;20084;-69
2023/07/26 14:19:51;;;;;;;2.00;0.90;;;;;;;22.46;100.00;101023.25;10435210;28;20428;-69
2023/07/26 14:24:52;;;;;;;4.13;1.00;;;;;;;22.21;100.00;101011.66;10452905;28;20075;-68
2023/07/26 14:29:52;;;;;;;1.40;0.90;;;;;;;22.00;100.00;100988.25;10473077;28;20049;-68
2023/07/26 14:34:53;;;;;;;2.40;1.00;;;;;;;22.24;100.00;100994.25;10420272;28;20056;-70
2023/07/26 14:39:53;;;;;;;4.20;0.90;;;;;;;23.18;100.00;100985.09;10421804;28;20056;-69
2023/07/26 14:44:54;;;;;;;2.97;1.08;;;;;;;24.18;95.90;100962.97;10441629;28;20049;-69
2023/07/26 14:49:55;;;;;;;4.13;1.00;;;;;;;23.13;100.00;100980.50;10434093;28;20485;-69
2023/07/26 14:54:55;;;;;;;3.80;1.30;;;;;;;22.27;100.00;100976.72;10399543;28;20032;-69
2023/07/26 14:59:56;;;;;;;2.72;1.15;;;;;;;21.91;100.00;100993.84;10431908;28;20479;-69
2023/07/26 15:04:57;;;;;;;2.85;1.10;;;;;;;22.24;98.59;100971.81;10435378;28;20044;-69
2023/07/26 15:09:57;;;;;;;1.63;0.80;;;;;;;21.89;98.01;100993.34;10424204;28;20033;-69
2023/07/26 15:14:58;;;;;;;1.30;0.73;;;;;;;23.08;100.00;100989.09;10395086;28;20707;-70
2023/07/26 15:19:58;;;;;;;2.38;0.80;;;;;;;24.67;86.29;100957.53;10425672;28;20059;-69
2023/07/26 15:24:59;;;;;;;1.17;0.70;;;;;;;25.10;80.69;100946.91;10451904;28;20133;-69
2023/07/26 15:29:59;;;;;;;2.00;1.00;;;;;;;24.79;80.07;100962.38;10457966;28;20037;-68
2023/07/26 15:35:00;;;;;;;2.65;1.10;;;;;;;22.56;83.29;100972.41;10465861;28;20449;-69
2023/07/26 15:40:00;;;;;;;2.60;1.08;;;;;;;22.60;88.83;100986.59;10419063;28;20084;-69
2023/07/26 15:45:01;;;;;;;3.08;0.82;;;;;;;24.95;82.90;100979.41;10423046;28;20078;-70
2023/07/26 15:50:01;;;;;;;2.22;1.20;;;;;;;25.64;79.36;100977.69;10436732;28;20041;-69
2023/07/26 15:55:02;;;;;;;4.22;1.25;;;;;;;25.03;78.37;100967.19;10452509;28;20064;-70
2023/07/26 16:00:03;;;;;;;3.53;1.00;;;;;;;25.11;78.55;100968.28;10440308;28;20068;-68
2023/07/26 16:05:05;;;;;;;1.58;1.10;;;;;;;24.89;78.64;100969.56;10455493;28;20130;-69
2023/07/26 16:10:06;;;;;;;1.92;1.20;;;;;;;23.37;80.18;100974.25;10448068;28;20048;-69
2023/07/26 16:15:07;;;;;;;2.40;1.20;;;;;;;23.63;82.10;100969.66;10463930;28;20040;-69
2023/07/26 16:20:08;;;;;;;2.30;1.38;;;;;;;24.19;81.29;100966.63;10456658;28;20037;-69
2023/07/26 16:25:09;;;;;;;2.72;1.42;;;;;;;24.25;81.00;100966.06;10430895;28;20037;-68
2023/07/26 16:30:10;;;;;;;1.90;1.70;;;;;;;23.34;80.98;100957.28;10474778;28;20041;-69
2023/07/26 16:35:11;;;;;;;1.98;0.90;;;;;;;23.66;82.94;100954.91;10447611;28;20052;-70
2023/07/26 16:40:13;;;;;;;4.15;1.35;;;;;;;23.81;81.26;100945.91;10456993;28;20036;-69
2023/07/26 16:45:14;;;;;;;2.42;1.13;;;;;;;23.79;81.41;100955.84;10423306;28;20049;-69
2023/07/26 16:50:14;;;;;;;5.10;1.55;;;;;;;22.05;85.19;100963.66;10445640;28;20088;-69
2023/07/26 16:55:15;;;;;;;3.30;1.45;;;;;;;21.29;89.98;100983.63;10425183;28;20041;-69
2023/07/26 17:00:15;;;;;;;1.92;1.08;;;;;;;20.94;93.80;100992.72;10479606;28;20045;-69
2023/07/26 17:05:16;;;;;;;3.65;1.23;;;;;;;20.66;92.66;100989.25;10453799;28;20536;-69
2023/07/26 17:10:16;;;;;;;3.97;1.42;;;;;;;20.27;93.27;100985.19;10442625;28;20072;-69
2023/07/26 17:15:17;;;;;;;3.90;1.40;;;;;;;19.89;96.60;101002.28;10456045;28;20070;-69
2023/07/26 17:20:17;;;;;;;5.72;2.03;;;;;;;19.59;100.00;101002.94;10458839;28;20060;-69
2023/07/26 17:25:18;;;;;;;3.38;1.50;;;;;;;19.49;100.00;100999.25;10427788;28;20147;-69
2023/07/26 17:30:21;;;;;;;2.05;1.20;;;;;;;19.59;100.00;100992.59;10412573;28;20041;-69
2023/07/26 17:35:26;;;;;;;3.35;1.45;;;;;;;19.36;100.00;101000.88;10477278;28;20040;-69
2023/07/26 17:40:33;;;;;;;2.10;1.27;;;;;;;19.07;100.00;100987.22;10461204;28;20033;-69
2023/07/26 17:45:34;;;;;;;3.03;1.45;;;;;;;18.97;100.00;101009.75;10444390;28;20041;-69
2023/07/26 17:50:35;;;;;;;3.30;1.70;;;;;;;18.54;100.00;101019.13;10449115;28;20040;-68
2023/07/26 17:55:35;;;;;;;2.95;1.10;;;;;;;18.56;100.00;101018.81;10459352;28;20037;-68
2023/07/26 18:00:36;;;;;;;8.35;1.90;;;;;;;18.62;100.00;101019.56;10441851;28;20407;-68
2023/07/26 18:05:36;;;;;;;4.45;1.55;;;;;;;18.62;100.00;101022.34;10438966;28;20032;-68
2023/07/26 18:10:37;;;;;;;7.32;1.98;;;;;;;18.45;100.00;101029.31;10423983;28;20511;-68
2023/07/26 18:15:38;;;;;;;3.55;1.60;;;;;;;18.24;100.00;101042.75;10422406;28;20044;-67
2023/07/26 18:20:38;;;;;;;3.47;1.75;;;;;;;17.98;100.00;101033.09;10433946;28;20040;-66
2023/07/26 18:25:41;;;;;;;3.85;2.13;;;;;;;17.77;100.00;101040.88;10440368;28;20127;-67
2023/07/26 18:30:42;;;;;;;2.50;1.38;;;;;;;17.57;100.00;101045.59;10441362;28;20119;-67
2023/07/26 18:35:42;;;;;;;2.88;1.92;;;;;;;17.43;100.00;101047.44;10466322;28;20523;-67
2023/07/26 18:40:43;;;;;;;5.90;1.63;;;;;;;17.27;100.00;101049.56;10438915;28;20067;-67
2023/07/26 18:45:44;;;;;;;5.22;1.60;;;;;;;17.17;100.00;101063.56;10423826;28;20036;-67
2023/07/26 18:50:46;;;;;;;3.70;1.63;;;;;;;16.99;100.00;101066.00;10427132;28;20047;-68
2023/07/26 18:55:47;;;;;;;5.13;1.65;;;;;;;16.83;100.00;101073.63;10412466;28;20049;-68
2023/07/26 19:00:48;;;;;;;4.30;1.52;;;;;;;16.75;100.00;101075.06;10425254;28;20484;-68
2023/07/26 19:05:48;;;;;;;4.05;2.00;;;;;;;16.62;100.00;101074.88;10422523;28;20064;-67
2023/07/26 19:10:49;;;;;;;5.90;1.80;;;;;;;16.51;100.00;101083.28;10422751;28;20041;-67
2023/07/26 19:15:55;;;;;;;5.97;2.55;;;;;;;16.37;100.00;101089.78;10416716;28;20576;-67
2023/07/26 19:21:07;;;;;;;5.18;2.60;;;;;;;16.23;100.00;101090.44;10441761;28;20104;-67
2023/07/26 19:26:11;;;;;;;12.43;2.80;;;;;;;16.10;100.00;101091.06;10408737;28;20072;-68
2023/07/26 19:31:13;;;;;;;9.23;2.20;;;;;;;15.54;100.00;101059.66;10410836;28;20043;-67
2023/07/26 19:36:13;;;;;;;12.57;3.10;;;;;;;15.67;100.00;101082.38;10436736;28;20055;-67
2023/07/26 19:41:15;;;;;;;10.38;3.15;;;;;;;15.53;100.00;101098.78;10422582;28;20044;-68
2023/07/26 19:46:16;;;;;;;12.80;3.47;;;;;;;15.37;100.00;101095.22;10419604;28;20037;-67
2023/07/26 19:51:17;;;;;;;13.88;3.17;;;;;;;15.14;100.00;101075.28;10421626;28;20065;-67
2023/07/26 19:56:18;;;;;;;11.48;3.58;;;;;;;14.77;100.00;101058.16;10414168;28;20462;-67
2023/07/26 20:01:20;;;;;;;5.72;2.45;;;;;;;14.86;100.00;101095.28;10439277;28;20037;-67
2023/07/26 20:06:21;;;;;;;5.20;2.55;;;;;;;14.72;100.00;101087.53;10443463;28;20044;-67
2023/07/26 20:11:21;;;;;;;3.28;2.15;;;;;;;14.61;100.00;101085.84;10453599;28;20040;-68
2023/07/26 20:16:25;;;;;;;5.28;2.17;;;;;;;14.44;100.00;101093.56;10473082;28;20040;-67
2023/07/26 20:21:25;;;;;;;5.25;2.47;;;;;;;14.39;100.00;101090.81;10438943;28;20050;-67
2023/07/26 20:26:29;;;;;;;4.97;2.95;;;;;;;14.16;100.00;101081.03;10449759;28;20270;-67
2023/07/26 20:31:30;;;;;;;5.72;2.83;;;;;;;14.11;100.00;101084.66;10414525;28;20124;-68
2023/07/26 20:36:31;;;;;;;3.75;1.98;;;;;;;14.08;100.00;101091.56;10413581;28;20099;-67
2023/07/26 20:41:31;;;;;;;4.30;2.30;;;;;;;14.00;100.00;101088.50;10414824;28;20032;-68
2023/07/26 20:46:32;;;;;;;3.65;2.05;;;;;;;13.86;100.00;101089.00;10400612;28;20090;-68
2023/07/26 20:51:32;;;;;;;5.75;2.70;;;;;;;13.26;100.00;100999.91;10395425;28;21270;-67
2023/07/26 20:56:33;;;;;;;6.80;3.10;;;;;;;13.63;100.00;101083.94;10367831;28;20041;-67
2023/07/26 21:01:34;;;;;;;4.97;2.78;;;;;;;13.56;100.00;101080.56;10374308;28;20041;-67
2023/07/26 21:06:34;;;;;;;5.80;2.50;;;;;;;13.33;100.00;101063.28;10388709;28;20072;-67
2023/07/26 21:11:35;;;;;;;5.53;2.70;;;;;;;13.32;100.00;101069.94;10373515;28;20041;-67
2023/07/26 21:16:36;;;;;;;5.20;2.40;;;;;;;13.27;100.00;101075.38;10391136;28;20112;-67
2023/07/26 21:21:36;;;;;;;7.15;2.75;;;;;;;13.19;100.00;101067.59;10401155;28;20041;-68
2023/07/26 21:26:37;;;;;;;4.75;2.40;;;;;;;12.97;100.00;101043.72;10370561;28;20049;-67
2023/07/26 21:31:37;;;;;;;5.50;2.60;;;;;;;13.00;100.00;101058.91;10391774;28;20052;-67
2023/07/26 21:36:38;;;;;;;3.22;2.10;;;;;;;12.90;100.00;101055.00;10380847;28;20061;-66
2023/07/26 21:41:38;;;;;;;4.15;2.53;;;;;;;12.82;100.00;101043.63;10390294;28;20122;-66
2023/07/26 21:46:39;;;;;;;5.90;2.30;;;;;;;12.74;100.00;101049.63;10378408;28;20418;-67
2023/07/26 21:51:40;;;;;;;3.63;2.35;;;;;;;12.65;100.00;101036.31;10373640;28;20056;-67
2023/07/26 21:56:40;;;;;;;7.13;3.00;;;;;;;12.57;100.00;101042.31;10394667;28;20041;-67
2023/07/26 22:01:42;;;;;;;7.72;2.72;;;;;;;12.36;100.00;101023.91;10391724;28;20038;-67
2023/07/26 22:06:42;;;;;;;4.50;2.33;;;;;;;12.30;100.00;101023.84;10368744;28;20045;-67
2023/07/26 22:11:43;;;;;;;5.78;2.97;;;;;;;12.20;100.00;101026.53;10353230;28;20049;-66
2023/07/26 22:16:44;;;;;;;4.90;2.53;;;;;;;12.12;100.00;101010.44;10374532;28;20509;-67
2023/07/26 22:21:44;;;;;;;7.07;3.40;;;;;;;12.06;100.00;101017.00;10349008;28;20045;-67
2023/07/26 22:26:47;;;;;;;6.53;3.25;;;;;;;11.88;100.00;101007.13;10393893;28;20041;-67
2023/07/26 22:31:48;;;;;;;5.80;2.80;;;;;;;11.93;100.00;101012.75;10392057;28;20037;-67
2023/07/26 22:36:49;;;;;;;10.75;3.67;;;;;;;11.90;100.00;101003.03;10440071;28;20045;-67
2023/07/26 22:41:49;;;;;;;6.05;3.38;;;;;;;11.80;100.00;100994.66;10422091;28;20942;-67
2023/07/26 22:46:50;;;;;;;8.32;3.90;;;;;;;11.70;100.00;100980.75;10439914;28;20090;-67